sensor_id;sensor_type;location;lat;lon;timestamp;P1;durP1;ratioP1;P2;durP2;ratioP2
71150;SDS011;59071;42.138;24.768;2024-03-07T00:00:20;27.20;;;14.95;;
71150;SDS011;59071;42.138;24.768;2024-03-07T00:02:49;27.75;;;15.35;;
71150;SDS011;59071;42.138;24.768;2024-03-07T00:05:17;32.08;;;16.17;;
71150;SDS011;59071;42.138;24.768;2024-03-07T00:07:44;29.15;;;15.73;;
71150;SDS011;59071;42.138;24.768;2024-03-07T00:10:10;28.55;;;14.82;;
71150;SDS011;59071;42.138;24.768;2024-03-07T00:12:36;33.90;;;15.15;;
71150;SDS011;59071;42.138;24.768;2024-03-07T00:15:06;32.22;;;15.23;;
71150;SDS011;59071;42.138;24.768;2024-03-07T00:17:32;27.10;;;15.00;;
71150;SDS011;59071;42.138;24.768;2024-03-07T00:19:58;26.33;;;14.05;;
71150;SDS011;59071;42.138;24.768;2024-03-07T00:22:24;32.40;;;15.35;;
71150;SDS011;59071;42.138;24.768;2024-03-07T00:24:52;29.73;;;15.70;;
71150;SDS011;59071;42.138;24.768;2024-03-07T00:27:18;29.45;;;16.00;;
71150;SDS011;59071;42.138;24.768;2024-03-07T00:29:45;30.60;;;15.40;;
71150;SDS011;59071;42.138;24.768;2024-03-07T00:32:17;28.98;;;15.52;;
71150;SDS011;59071;42.138;24.768;2024-03-07T00:34:43;28.05;;;15.52;;
71150;SDS011;59071;42.138;24.768;2024-03-07T00:37:09;30.60;;;15.63;;
71150;SDS011;59071;42.138;24.768;2024-03-07T00:39:34;32.00;;;15.70;;
71150;SDS011;59071;42.138;24.768;2024-03-07T00:42:00;26.77;;;14.65;;
71150;SDS011;59071;42.138;24.768;2024-03-07T00:44:25;35.75;;;14.75;;
71150;SDS011;59071;42.138;24.768;2024-03-07T00:46:51;32.85;;;15.85;;
71150;SDS011;59071;42.138;24.768;2024-03-07T00:49:17;26.50;;;14.43;;
71150;SDS011;59071;42.138;24.768;2024-03-07T00:51:42;29.45;;;14.93;;
71150;SDS011;59071;42.138;24.768;2024-03-07T00:54:09;25.85;;;13.98;;
71150;SDS011;59071;42.138;24.768;2024-03-07T00:56:37;23.67;;;13.93;;
71150;SDS011;59071;42.138;24.768;2024-03-07T00:59:03;24.60;;;14.27;;
71150;SDS011;59071;42.138;24.768;2024-03-07T01:01:29;29.80;;;15.90;;
71150;SDS011;59071;42.138;24.768;2024-03-07T01:03:54;26.00;;;13.93;;
71150;SDS011;59071;42.138;24.768;2024-03-07T01:06:19;27.05;;;14.88;;
71150;SDS011;59071;42.138;24.768;2024-03-07T01:08:45;24.30;;;13.63;;
71150;SDS011;59071;42.138;24.768;2024-03-07T01:11:10;26.17;;;13.70;;
71150;SDS011;59071;42.138;24.768;2024-03-07T01:13:37;25.58;;;14.35;;
71150;SDS011;59071;42.138;24.768;2024-03-07T01:16:04;29.75;;;14.07;;
71150;SDS011;59071;42.138;24.768;2024-03-07T01:18:29;27.25;;;14.65;;
71150;SDS011;59071;42.138;24.768;2024-03-07T01:20:56;26.52;;;14.50;;
71150;SDS011;59071;42.138;24.768;2024-03-07T01:23:22;26.80;;;13.23;;
71150;SDS011;59071;42.138;24.768;2024-03-07T01:25:47;28.08;;;14.70;;
71150;SDS011;59071;42.138;24.768;2024-03-07T01:28:13;27.10;;;14.43;;
71150;SDS011;59071;42.138;24.768;2024-03-07T01:30:40;29.25;;;14.80;;
71150;SDS011;59071;42.138;24.768;2024-03-07T01:33:05;28.42;;;13.80;;
71150;SDS011;59071;42.138;24.768;2024-03-07T01:35:30;27.08;;;14.70;;
71150;SDS011;59071;42.138;24.768;2024-03-07T01:37:56;29.73;;;14.65;;
71150;SDS011;59071;42.138;24.768;2024-03-07T01:40:21;24.02;;;13.18;;
71150;SDS011;59071;42.138;24.768;2024-03-07T01:42:48;30.58;;;14.25;;
71150;SDS011;59071;42.138;24.768;2024-03-07T01:45:15;26.88;;;13.90;;
71150;SDS011;59071;42.138;24.768;2024-03-07T01:47:41;28.35;;;13.50;;
71150;SDS011;59071;42.138;24.768;2024-03-07T01:50:06;27.92;;;14.00;;
71150;SDS011;59071;42.138;24.768;2024-03-07T01:52:32;27.10;;;14.00;;
71150;SDS011;59071;42.138;24.768;2024-03-07T01:54:58;27.88;;;13.82;;
71150;SDS011;59071;42.138;24.768;2024-03-07T01:57:24;31.08;;;14.20;;
71150;SDS011;59071;42.138;24.768;2024-03-07T01:59:50;26.45;;;14.30;;
71150;SDS011;59071;42.138;24.768;2024-03-07T02:02:16;25.20;;;13.80;;
71150;SDS011;59071;42.138;24.768;2024-03-07T02:04:44;29.95;;;15.10;;
71150;SDS011;59071;42.138;24.768;2024-03-07T02:07:10;27.08;;;14.15;;
71150;SDS011;59071;42.138;24.768;2024-03-07T02:09:38;26.77;;;14.05;;
71150;SDS011;59071;42.138;24.768;2024-03-07T02:12:03;24.92;;;13.73;;
71150;SDS011;59071;42.138;24.768;2024-03-07T02:14:29;26.92;;;14.45;;
71150;SDS011;59071;42.138;24.768;2024-03-07T02:16:55;31.23;;;14.68;;
71150;SDS011;59071;42.138;24.768;2024-03-07T02:19:24;24.50;;;14.35;;
71150;SDS011;59071;42.138;24.768;2024-03-07T02:21:49;29.35;;;14.82;;
71150;SDS011;59071;42.138;24.768;2024-03-07T02:24:15;28.33;;;13.82;;
71150;SDS011;59071;42.138;24.768;2024-03-07T02:26:41;27.70;;;14.07;;
71150;SDS011;59071;42.138;24.768;2024-03-07T02:29:06;28.25;;;13.27;;
71150;SDS011;59071;42.138;24.768;2024-03-07T02:31:32;26.67;;;14.32;;
71150;SDS011;59071;42.138;24.768;2024-03-07T02:36:27;28.88;;;13.98;;
71150;SDS011;59071;42.138;24.768;2024-03-07T02:38:53;30.70;;;15.10;;
71150;SDS011;59071;42.138;24.768;2024-03-07T02:41:19;27.63;;;13.70;;
71150;SDS011;59071;42.138;24.768;2024-03-07T02:43:44;26.10;;;14.45;;
71150;SDS011;59071;42.138;24.768;2024-03-07T02:46:10;28.25;;;13.98;;
71150;SDS011;59071;42.138;24.768;2024-03-07T02:48:37;27.30;;;14.65;;
71150;SDS011;59071;42.138;24.768;2024-03-07T02:51:03;28.13;;;13.52;;
71150;SDS011;59071;42.138;24.768;2024-03-07T02:53:31;30.17;;;14.82;;
71150;SDS011;59071;42.138;24.768;2024-03-07T02:55:57;26.52;;;14.10;;
71150;SDS011;59071;42.138;24.768;2024-03-07T02:58:23;26.33;;;13.48;;
71150;SDS011;59071;42.138;24.768;2024-03-07T03:00:49;26.38;;;13.07;;
71150;SDS011;59071;42.138;24.768;2024-03-07T03:03:22;26.58;;;13.77;;
71150;SDS011;59071;42.138;24.768;2024-03-07T03:05:48;22.50;;;12.05;;
71150;SDS011;59071;42.138;24.768;2024-03-07T03:08:13;26.48;;;12.70;;
71150;SDS011;59071;42.138;24.768;2024-03-07T03:10:39;27.50;;;13.73;;
71150;SDS011;59071;42.138;24.768;2024-03-07T03:13:04;23.92;;;12.82;;
71150;SDS011;59071;42.138;24.768;2024-03-07T03:15:30;23.38;;;12.30;;
71150;SDS011;59071;42.138;24.768;2024-03-07T03:17:56;27.50;;;13.15;;
71150;SDS011;59071;42.138;24.768;2024-03-07T03:20:25;26.00;;;13.40;;
71150;SDS011;59071;42.138;24.768;2024-03-07T03:22:54;27.48;;;13.30;;
71150;SDS011;59071;42.138;24.768;2024-03-07T03:25:20;26.17;;;13.35;;
71150;SDS011;59071;42.138;24.768;2024-03-07T03:27:49;30.60;;;13.10;;
71150;SDS011;59071;42.138;24.768;2024-03-07T03:30:15;23.08;;;12.52;;
71150;SDS011;59071;42.138;24.768;2024-03-07T03:32:43;27.13;;;12.48;;
71150;SDS011;59071;42.138;24.768;2024-03-07T03:35:10;27.67;;;13.10;;
71150;SDS011;59071;42.138;24.768;2024-03-07T03:37:47;25.40;;;12.35;;
71150;SDS011;59071;42.138;24.768;2024-03-07T03:40:12;26.52;;;12.45;;
71150;SDS011;59071;42.138;24.768;2024-03-07T03:42:38;24.20;;;12.68;;
71150;SDS011;59071;42.138;24.768;2024-03-07T03:45:05;24.10;;;12.20;;
71150;SDS011;59071;42.138;24.768;2024-03-07T03:47:38;25.00;;;13.02;;
71150;SDS011;59071;42.138;24.768;2024-03-07T03:50:04;22.92;;;12.68;;
71150;SDS011;59071;42.138;24.768;2024-03-07T03:52:30;25.58;;;12.52;;
71150;SDS011;59071;42.138;24.768;2024-03-07T03:54:56;25.50;;;11.25;;
71150;SDS011;59071;42.138;24.768;2024-03-07T03:57:22;26.63;;;12.50;;
71150;SDS011;59071;42.138;24.768;2024-03-07T03:59:47;23.52;;;12.52;;
71150;SDS011;59071;42.138;24.768;2024-03-07T04:02:13;28.77;;;12.55;;
71150;SDS011;59071;42.138;24.768;2024-03-07T04:04:39;25.05;;;13.23;;
71150;SDS011;59071;42.138;24.768;2024-03-07T04:07:05;27.75;;;13.07;;
71150;SDS011;59071;42.138;24.768;2024-03-07T04:09:30;23.58;;;12.55;;
71150;SDS011;59071;42.138;24.768;2024-03-07T04:11:56;23.00;;;12.23;;
71150;SDS011;59071;42.138;24.768;2024-03-07T04:14:22;25.83;;;12.63;;
71150;SDS011;59071;42.138;24.768;2024-03-07T04:16:48;24.58;;;12.63;;
71150;SDS011;59071;42.138;24.768;2024-03-07T04:19:13;25.65;;;13.15;;
71150;SDS011;59071;42.138;24.768;2024-03-07T04:21:39;24.80;;;12.65;;
71150;SDS011;59071;42.138;24.768;2024-03-07T04:24:05;24.15;;;12.10;;
71150;SDS011;59071;42.138;24.768;2024-03-07T04:26:30;26.90;;;13.23;;
71150;SDS011;59071;42.138;24.768;2024-03-07T04:28:55;24.38;;;12.07;;
71150;SDS011;59071;42.138;24.768;2024-03-07T04:31:23;25.48;;;13.43;;
71150;SDS011;59071;42.138;24.768;2024-03-07T04:33:48;26.63;;;13.98;;
71150;SDS011;59071;42.138;24.768;2024-03-07T04:36:14;26.30;;;13.02;;
71150;SDS011;59071;42.138;24.768;2024-03-07T04:38:39;24.08;;;12.48;;
71150;SDS011;59071;42.138;24.768;2024-03-07T04:41:10;25.95;;;13.43;;
71150;SDS011;59071;42.138;24.768;2024-03-07T04:43:36;25.20;;;12.43;;
71150;SDS011;59071;42.138;24.768;2024-03-07T04:46:02;27.50;;;13.90;;
71150;SDS011;59071;42.138;24.768;2024-03-07T04:48:27;25.98;;;13.43;;
71150;SDS011;59071;42.138;24.768;2024-03-07T04:50:53;34.35;;;13.35;;
71150;SDS011;59071;42.138;24.768;2024-03-07T04:53:18;26.50;;;12.93;;
71150;SDS011;59071;42.138;24.768;2024-03-07T04:55:43;25.38;;;13.15;;
71150;SDS011;59071;42.138;24.768;2024-03-07T04:58:09;27.88;;;14.32;;
71150;SDS011;59071;42.138;24.768;2024-03-07T05:00:34;25.98;;;12.70;;
71150;SDS011;59071;42.138;24.768;2024-03-07T05:03:00;26.20;;;13.32;;
71150;SDS011;59071;42.138;24.768;2024-03-07T05:05:25;30.10;;;13.48;;
71150;SDS011;59071;42.138;24.768;2024-03-07T05:07:51;23.90;;;12.43;;
71150;SDS011;59071;42.138;24.768;2024-03-07T05:10:17;26.27;;;13.63;;
71150;SDS011;59071;42.138;24.768;2024-03-07T05:12:42;25.95;;;13.75;;
71150;SDS011;59071;42.138;24.768;2024-03-07T05:15:08;28.83;;;14.57;;
71150;SDS011;59071;42.138;24.768;2024-03-07T05:17:36;25.95;;;13.57;;
71150;SDS011;59071;42.138;24.768;2024-03-07T05:20:04;28.98;;;13.98;;
71150;SDS011;59071;42.138;24.768;2024-03-07T05:22:41;30.92;;;15.43;;
71150;SDS011;59071;42.138;24.768;2024-03-07T05:25:12;28.65;;;13.98;;
71150;SDS011;59071;42.138;24.768;2024-03-07T05:27:38;29.25;;;14.60;;
71150;SDS011;59071;42.138;24.768;2024-03-07T05:30:04;32.25;;;14.70;;
71150;SDS011;59071;42.138;24.768;2024-03-07T05:32:36;31.17;;;14.45;;
71150;SDS011;59071;42.138;24.768;2024-03-07T05:35:02;32.72;;;14.35;;
71150;SDS011;59071;42.138;24.768;2024-03-07T05:37:28;36.67;;;15.95;;
71150;SDS011;59071;42.138;24.768;2024-03-07T05:39:53;31.27;;;15.90;;
71150;SDS011;59071;42.138;24.768;2024-03-07T05:42:19;33.17;;;15.23;;
71150;SDS011;59071;42.138;24.768;2024-03-07T05:44:45;32.33;;;14.82;;
71150;SDS011;59071;42.138;24.768;2024-03-07T05:47:10;32.80;;;15.18;;
71150;SDS011;59071;42.138;24.768;2024-03-07T05:49:38;29.02;;;14.57;;
71150;SDS011;59071;42.138;24.768;2024-03-07T05:52:04;29.80;;;13.50;;
71150;SDS011;59071;42.138;24.768;2024-03-07T05:54:31;29.58;;;15.52;;
71150;SDS011;59071;42.138;24.768;2024-03-07T05:56:57;33.03;;;15.93;;
71150;SDS011;59071;42.138;24.768;2024-03-07T05:59:22;30.38;;;15.88;;
71150;SDS011;59071;42.138;24.768;2024-03-07T06:01:48;38.00;;;15.93;;
71150;SDS011;59071;42.138;24.768;2024-03-07T06:04:13;35.65;;;15.38;;
71150;SDS011;59071;42.138;24.768;2024-03-07T06:06:40;35.53;;;15.75;;
71150;SDS011;59071;42.138;24.768;2024-03-07T06:09:07;34.08;;;16.02;;
71150;SDS011;59071;42.138;24.768;2024-03-07T06:14:00;35.15;;;18.10;;
71150;SDS011;59071;42.138;24.768;2024-03-07T06:16:28;36.95;;;16.00;;
71150;SDS011;59071;42.138;24.768;2024-03-07T06:21:23;33.45;;;15.65;;
71150;SDS011;59071;42.138;24.768;2024-03-07T06:23:48;33.20;;;16.23;;
71150;SDS011;59071;42.138;24.768;2024-03-07T06:26:20;37.55;;;16.55;;
71150;SDS011;59071;42.138;24.768;2024-03-07T06:29:01;39.65;;;16.77;;
71150;SDS011;59071;42.138;24.768;2024-03-07T06:31:27;38.47;;;16.80;;
71150;SDS011;59071;42.138;24.768;2024-03-07T06:33:53;38.95;;;17.25;;
71150;SDS011;59071;42.138;24.768;2024-03-07T06:36:18;33.80;;;16.48;;
71150;SDS011;59071;42.138;24.768;2024-03-07T06:38:43;34.95;;;16.92;;
71150;SDS011;59071;42.138;24.768;2024-03-07T06:41:09;34.22;;;15.93;;
71150;SDS011;59071;42.138;24.768;2024-03-07T06:43:35;35.88;;;17.05;;
71150;SDS011;59071;42.138;24.768;2024-03-07T06:46:00;35.42;;;16.42;;
71150;SDS011;59071;42.138;24.768;2024-03-07T06:48:26;34.67;;;16.10;;
71150;SDS011;59071;42.138;24.768;2024-03-07T06:50:51;32.22;;;16.63;;
71150;SDS011;59071;42.138;24.768;2024-03-07T06:53:17;39.17;;;16.65;;
71150;SDS011;59071;42.138;24.768;2024-03-07T06:55:43;34.35;;;16.42;;
71150;SDS011;59071;42.138;24.768;2024-03-07T06:58:08;31.30;;;15.73;;
71150;SDS011;59071;42.138;24.768;2024-03-07T07:00:35;29.48;;;15.38;;
71150;SDS011;59071;42.138;24.768;2024-03-07T07:03:01;34.85;;;16.60;;
71150;SDS011;59071;42.138;24.768;2024-03-07T07:05:29;35.92;;;15.95;;
71150;SDS011;59071;42.138;24.768;2024-03-07T07:07:55;31.10;;;17.05;;
71150;SDS011;59071;42.138;24.768;2024-03-07T07:10:20;29.40;;;15.23;;
71150;SDS011;59071;42.138;24.768;2024-03-07T07:12:49;29.25;;;14.90;;
71150;SDS011;59071;42.138;24.768;2024-03-07T07:15:18;33.28;;;16.25;;
71150;SDS011;59071;42.138;24.768;2024-03-07T07:17:45;31.95;;;15.05;;
71150;SDS011;59071;42.138;24.768;2024-03-07T07:20:12;35.03;;;15.65;;
71150;SDS011;59071;42.138;24.768;2024-03-07T07:22:40;29.85;;;14.73;;
71150;SDS011;59071;42.138;24.768;2024-03-07T07:25:10;34.95;;;17.02;;
71150;SDS011;59071;42.138;24.768;2024-03-07T07:30:14;29.63;;;14.20;;
71150;SDS011;59071;42.138;24.768;2024-03-07T07:32:42;25.95;;;13.55;;
71150;SDS011;59071;42.138;24.768;2024-03-07T07:35:08;25.98;;;13.85;;
71150;SDS011;59071;42.138;24.768;2024-03-07T07:37:46;29.63;;;14.60;;
71150;SDS011;59071;42.138;24.768;2024-03-07T07:40:14;31.95;;;14.52;;
71150;SDS011;59071;42.138;24.768;2024-03-07T07:45:09;27.77;;;13.18;;
71150;SDS011;59071;42.138;24.768;2024-03-07T07:47:39;26.48;;;12.95;;
71150;SDS011;59071;42.138;24.768;2024-03-07T07:50:16;24.67;;;12.70;;
71150;SDS011;59071;42.138;24.768;2024-03-07T07:52:49;24.60;;;12.40;;
71150;SDS011;59071;42.138;24.768;2024-03-07T07:55:20;26.67;;;13.18;;
71150;SDS011;59071;42.138;24.768;2024-03-07T07:57:50;26.95;;;13.65;;
71150;SDS011;59071;42.138;24.768;2024-03-07T08:00:20;28.95;;;13.40;;
71150;SDS011;59071;42.138;24.768;2024-03-07T08:05:35;25.95;;;13.45;;
71150;SDS011;59071;42.138;24.768;2024-03-07T08:08:03;28.13;;;13.25;;
71150;SDS011;59071;42.138;24.768;2024-03-07T08:10:31;27.48;;;13.55;;
71150;SDS011;59071;42.138;24.768;2024-03-07T08:12:58;29.67;;;14.05;;
71150;SDS011;59071;42.138;24.768;2024-03-07T08:15:24;31.05;;;13.27;;
71150;SDS011;59071;42.138;24.768;2024-03-07T08:17:51;28.02;;;14.18;;
71150;SDS011;59071;42.138;24.768;2024-03-07T08:20:18;28.80;;;13.60;;
71150;SDS011;59071;42.138;24.768;2024-03-07T08:22:48;26.25;;;13.25;;
71150;SDS011;59071;42.138;24.768;2024-03-07T08:25:18;30.55;;;14.05;;
71150;SDS011;59071;42.138;24.768;2024-03-07T08:27:47;27.65;;;13.63;;
71150;SDS011;59071;42.138;24.768;2024-03-07T08:30:14;26.93;;;13.37;;
71150;SDS011;59071;42.138;24.768;2024-03-07T08:32:41;25.60;;;13.15;;
71150;SDS011;59071;42.138;24.768;2024-03-07T08:35:07;29.85;;;13.63;;
71150;SDS011;59071;42.138;24.768;2024-03-07T08:37:37;33.17;;;13.80;;
71150;SDS011;59071;42.138;24.768;2024-03-07T08:40:06;32.13;;;15.70;;
71150;SDS011;59071;42.138;24.768;2024-03-07T08:42:35;37.10;;;17.88;;
71150;SDS011;59071;42.138;24.768;2024-03-07T08:45:01;32.42;;;15.27;;
71150;SDS011;59071;42.138;24.768;2024-03-07T08:47:29;36.60;;;16.90;;
71150;SDS011;59071;42.138;24.768;2024-03-07T08:49:59;32.03;;;14.57;;
71150;SDS011;59071;42.138;24.768;2024-03-07T08:52:25;33.10;;;14.80;;
71150;SDS011;59071;42.138;24.768;2024-03-07T08:54:50;33.25;;;16.38;;
71150;SDS011;59071;42.138;24.768;2024-03-07T08:57:15;36.10;;;16.83;;
71150;SDS011;59071;42.138;24.768;2024-03-07T08:59:44;32.20;;;15.40;;
71150;SDS011;59071;42.138;24.768;2024-03-07T09:02:10;32.78;;;15.82;;
71150;SDS011;59071;42.138;24.768;2024-03-07T09:04:39;34.10;;;15.05;;
71150;SDS011;59071;42.138;24.768;2024-03-07T09:07:04;38.13;;;17.25;;
71150;SDS011;59071;42.138;24.768;2024-03-07T09:09:31;33.67;;;17.05;;
71150;SDS011;59071;42.138;24.768;2024-03-07T09:11:57;34.45;;;17.38;;
71150;SDS011;59071;42.138;24.768;2024-03-07T09:14:22;39.97;;;18.70;;
71150;SDS011;59071;42.138;24.768;2024-03-07T09:16:48;35.20;;;18.40;;
71150;SDS011;59071;42.138;24.768;2024-03-07T09:19:14;44.45;;;19.73;;
71150;SDS011;59071;42.138;24.768;2024-03-07T09:21:44;35.35;;;19.13;;
71150;SDS011;59071;42.138;24.768;2024-03-07T09:24:11;41.03;;;18.88;;
71150;SDS011;59071;42.138;24.768;2024-03-07T09:26:36;38.75;;;19.30;;
71150;SDS011;59071;42.138;24.768;2024-03-07T09:29:02;40.17;;;19.52;;
71150;SDS011;59071;42.138;24.768;2024-03-07T09:31:30;38.63;;;19.00;;
71150;SDS011;59071;42.138;24.768;2024-03-07T09:33:59;38.75;;;18.67;;
71150;SDS011;59071;42.138;24.768;2024-03-07T09:36:24;41.50;;;19.45;;
71150;SDS011;59071;42.138;24.768;2024-03-07T09:38:50;40.38;;;20.13;;
71150;SDS011;59071;42.138;24.768;2024-03-07T09:41:15;37.85;;;19.20;;
71150;SDS011;59071;42.138;24.768;2024-03-07T09:43:45;40.55;;;21.05;;
71150;SDS011;59071;42.138;24.768;2024-03-07T09:46:13;41.75;;;20.85;;
71150;SDS011;59071;42.138;24.768;2024-03-07T09:48:39;43.92;;;21.75;;
71150;SDS011;59071;42.138;24.768;2024-03-07T09:51:05;44.72;;;21.55;;
71150;SDS011;59071;42.138;24.768;2024-03-07T09:53:36;45.63;;;21.92;;
71150;SDS011;59071;42.138;24.768;2024-03-07T09:56:03;45.10;;;22.98;;
71150;SDS011;59071;42.138;24.768;2024-03-07T09:58:31;45.78;;;22.50;;
71150;SDS011;59071;42.138;24.768;2024-03-07T10:01:01;48.65;;;23.13;;
71150;SDS011;59071;42.138;24.768;2024-03-07T10:03:29;43.22;;;22.92;;
71150;SDS011;59071;42.138;24.768;2024-03-07T10:05:55;54.13;;;25.42;;
71150;SDS011;59071;42.138;24.768;2024-03-07T10:08:21;50.78;;;22.52;;
71150;SDS011;59071;42.138;24.768;2024-03-07T10:10:49;48.83;;;22.73;;
71150;SDS011;59071;42.138;24.768;2024-03-07T10:13:15;44.88;;;21.55;;
71150;SDS011;59071;42.138;24.768;2024-03-07T10:15:42;45.17;;;22.65;;
71150;SDS011;59071;42.138;24.768;2024-03-07T10:18:09;45.65;;;23.13;;
71150;SDS011;59071;42.138;24.768;2024-03-07T10:20:39;51.63;;;23.27;;
71150;SDS011;59071;42.138;24.768;2024-03-07T10:23:04;48.08;;;22.70;;
71150;SDS011;59071;42.138;24.768;2024-03-07T10:25:32;47.67;;;22.88;;
71150;SDS011;59071;42.138;24.768;2024-03-07T10:27:58;46.38;;;23.17;;
71150;SDS011;59071;42.138;24.768;2024-03-07T10:30:25;45.58;;;22.85;;
71150;SDS011;59071;42.138;24.768;2024-03-07T10:32:52;49.42;;;23.42;;
71150;SDS011;59071;42.138;24.768;2024-03-07T10:35:21;46.47;;;21.88;;
71150;SDS011;59071;42.138;24.768;2024-03-07T10:37:53;45.72;;;22.17;;
71150;SDS011;59071;42.138;24.768;2024-03-07T10:40:19;45.83;;;22.65;;
71150;SDS011;59071;42.138;24.768;2024-03-07T10:42:47;49.03;;;23.55;;
71150;SDS011;59071;42.138;24.768;2024-03-07T10:47:42;44.78;;;21.15;;
71150;SDS011;59071;42.138;24.768;2024-03-07T10:50:21;43.58;;;22.25;;
71150;SDS011;59071;42.138;24.768;2024-03-07T10:52:58;41.35;;;21.48;;
71150;SDS011;59071;42.138;24.768;2024-03-07T10:55:40;41.42;;;22.08;;
71150;SDS011;59071;42.138;24.768;2024-03-07T11:01:07;49.50;;;25.05;;
71150;SDS011;59071;42.138;24.768;2024-03-07T11:03:38;48.40;;;23.77;;
71150;SDS011;59071;42.138;24.768;2024-03-07T11:06:05;44.85;;;23.08;;
71150;SDS011;59071;42.138;24.768;2024-03-07T11:08:39;43.05;;;23.40;;
71150;SDS011;59071;42.138;24.768;2024-03-07T11:11:04;52.92;;;26.60;;
71150;SDS011;59071;42.138;24.768;2024-03-07T11:13:31;51.28;;;23.80;;
71150;SDS011;59071;42.138;24.768;2024-03-07T11:15:58;47.60;;;24.13;;
71150;SDS011;59071;42.138;24.768;2024-03-07T11:18:25;47.67;;;23.77;;
71150;SDS011;59071;42.138;24.768;2024-03-07T11:20:51;48.40;;;24.58;;
71150;SDS011;59071;42.138;24.768;2024-03-07T11:23:27;47.15;;;23.58;;
71150;SDS011;59071;42.138;24.768;2024-03-07T11:26:01;49.80;;;24.48;;
71150;SDS011;59071;42.138;24.768;2024-03-07T11:28:32;49.22;;;24.88;;
71150;SDS011;59071;42.138;24.768;2024-03-07T11:31:09;48.65;;;24.75;;
71150;SDS011;59071;42.138;24.768;2024-03-07T11:33:37;50.90;;;25.30;;
71150;SDS011;59071;42.138;24.768;2024-03-07T11:36:09;45.95;;;24.58;;
71150;SDS011;59071;42.138;24.768;2024-03-07T11:38:37;49.30;;;24.70;;
71150;SDS011;59071;42.138;24.768;2024-03-07T11:41:03;57.25;;;24.83;;
71150;SDS011;59071;42.138;24.768;2024-03-07T11:43:33;48.53;;;24.63;;
71150;SDS011;59071;42.138;24.768;2024-03-07T11:45:59;52.50;;;25.70;;
71150;SDS011;59071;42.138;24.768;2024-03-07T11:48:24;54.55;;;26.23;;
71150;SDS011;59071;42.138;24.768;2024-03-07T11:50:50;50.13;;;25.60;;
71150;SDS011;59071;42.138;24.768;2024-03-07T11:53:16;51.10;;;27.13;;
71150;SDS011;59071;42.138;24.768;2024-03-07T11:55:42;59.17;;;28.48;;
71150;SDS011;59071;42.138;24.768;2024-03-07T11:58:12;59.63;;;29.73;;
71150;SDS011;59071;42.138;24.768;2024-03-07T12:03:12;58.30;;;26.15;;
71150;SDS011;59071;42.138;24.768;2024-03-07T12:05:42;51.35;;;26.02;;
71150;SDS011;59071;42.138;24.768;2024-03-07T12:08:08;57.30;;;26.48;;
71150;SDS011;59071;42.138;24.768;2024-03-07T12:10:35;52.13;;;26.77;;
71150;SDS011;59071;42.138;24.768;2024-03-07T12:13:02;62.55;;;28.90;;
71150;SDS011;59071;42.138;24.768;2024-03-07T12:15:30;53.38;;;27.00;;
71150;SDS011;59071;42.138;24.768;2024-03-07T12:17:57;51.67;;;26.45;;
71150;SDS011;59071;42.138;24.768;2024-03-07T12:20:22;49.67;;;25.00;;
71150;SDS011;59071;42.138;24.768;2024-03-07T12:23:07;51.25;;;25.63;;
71150;SDS011;59071;42.138;24.768;2024-03-07T12:25:36;46.97;;;21.77;;
71150;SDS011;59071;42.138;24.768;2024-03-07T12:30:31;42.38;;;21.10;;
71150;SDS011;59071;42.138;24.768;2024-03-07T12:33:01;48.08;;;23.30;;
71150;SDS011;59071;42.138;24.768;2024-03-07T12:35:32;49.50;;;23.95;;
71150;SDS011;59071;42.138;24.768;2024-03-07T12:37:58;50.05;;;23.77;;
71150;SDS011;59071;42.138;24.768;2024-03-07T12:40:24;50.53;;;23.48;;
71150;SDS011;59071;42.138;24.768;2024-03-07T12:42:54;45.95;;;23.67;;
71150;SDS011;59071;42.138;24.768;2024-03-07T12:45:19;47.55;;;22.63;;
71150;SDS011;59071;42.138;24.768;2024-03-07T12:47:47;46.08;;;23.02;;
71150;SDS011;59071;42.138;24.768;2024-03-07T12:50:16;47.50;;;23.05;;
71150;SDS011;59071;42.138;24.768;2024-03-07T12:52:47;51.50;;;24.77;;
71150;SDS011;59071;42.138;24.768;2024-03-07T12:55:15;50.38;;;24.10;;
71150;SDS011;59071;42.138;24.768;2024-03-07T12:57:46;44.15;;;23.50;;
71150;SDS011;59071;42.138;24.768;2024-03-07T13:00:17;45.90;;;22.35;;
71150;SDS011;59071;42.138;24.768;2024-03-07T13:02:48;44.00;;;22.23;;
71150;SDS011;59071;42.138;24.768;2024-03-07T13:05:14;41.25;;;21.75;;
71150;SDS011;59071;42.138;24.768;2024-03-07T13:07:46;41.17;;;21.13;;
71150;SDS011;59071;42.138;24.768;2024-03-07T13:10:13;38.15;;;21.23;;
71150;SDS011;59071;42.138;24.768;2024-03-07T13:12:40;40.05;;;20.55;;
71150;SDS011;59071;42.138;24.768;2024-03-07T13:15:09;30.20;;;17.10;;
71150;SDS011;59071;42.138;24.768;2024-03-07T13:17:35;36.15;;;18.73;;
71150;SDS011;59071;42.138;24.768;2024-03-07T13:20:01;34.38;;;17.95;;
71150;SDS011;59071;42.138;24.768;2024-03-07T13:22:26;32.58;;;18.10;;
71150;SDS011;59071;42.138;24.768;2024-03-07T13:24:52;33.67;;;18.85;;
71150;SDS011;59071;42.138;24.768;2024-03-07T13:27:18;38.28;;;19.58;;
71150;SDS011;59071;42.138;24.768;2024-03-07T13:29:53;34.42;;;18.52;;
71150;SDS011;59071;42.138;24.768;2024-03-07T13:32:18;33.80;;;17.50;;
71150;SDS011;59071;42.138;24.768;2024-03-07T13:34:44;35.55;;;17.40;;
71150;SDS011;59071;42.138;24.768;2024-03-07T13:37:10;29.30;;;16.52;;
71150;SDS011;59071;42.138;24.768;2024-03-07T13:39:40;29.20;;;15.35;;
71150;SDS011;59071;42.138;24.768;2024-03-07T13:42:08;28.45;;;15.40;;
71150;SDS011;59071;42.138;24.768;2024-03-07T13:44:36;28.00;;;15.00;;
71150;SDS011;59071;42.138;24.768;2024-03-07T13:47:03;24.67;;;15.07;;
71150;SDS011;59071;42.138;24.768;2024-03-07T13:49:30;26.05;;;15.25;;
71150;SDS011;59071;42.138;24.768;2024-03-07T13:51:55;27.60;;;16.30;;
71150;SDS011;59071;42.138;24.768;2024-03-07T13:54:28;26.05;;;14.80;;
71150;SDS011;59071;42.138;24.768;2024-03-07T13:57:20;25.30;;;13.30;;
71150;SDS011;59071;42.138;24.768;2024-03-07T14:03:15;19.00;;;11.48;;
71150;SDS011;59071;42.138;24.768;2024-03-07T14:05:56;19.45;;;10.93;;
71150;SDS011;59071;42.138;24.768;2024-03-07T14:11:34;17.55;;;9.80;;
71150;SDS011;59071;42.138;24.768;2024-03-07T14:29:38;14.18;;;8.80;;
71150;SDS011;59071;42.138;24.768;2024-03-07T14:32:10;13.52;;;8.68;;
71150;SDS011;59071;42.138;24.768;2024-03-07T14:40:21;12.25;;;8.20;;
71150;SDS011;59071;42.138;24.768;2024-03-07T14:42:49;12.85;;;8.07;;
71150;SDS011;59071;42.138;24.768;2024-03-07T14:45:19;13.13;;;8.15;;
71150;SDS011;59071;42.138;24.768;2024-03-07T14:47:47;15.40;;;8.90;;
71150;SDS011;59071;42.138;24.768;2024-03-07T14:50:17;11.75;;;8.05;;
71150;SDS011;59071;42.138;24.768;2024-03-07T14:52:45;12.77;;;8.57;;
71150;SDS011;59071;42.138;24.768;2024-03-07T14:55:12;14.63;;;8.55;;
71150;SDS011;59071;42.138;24.768;2024-03-07T14:57:38;15.27;;;9.27;;
71150;SDS011;59071;42.138;24.768;2024-03-07T15:00:04;15.02;;;9.20;;
71150;SDS011;59071;42.138;24.768;2024-03-07T15:02:39;14.40;;;8.95;;